createdAt,value
2022-11-29T00:01:56.710Z,4.47
2022-11-29T00:07:17.132Z,4.49
2022-11-29T00:12:37.793Z,4.45
2022-11-29T00:17:58.190Z,4.48
2022-11-29T00:23:19.014Z,4.50
2022-11-29T00:28:39.612Z,4.49
2022-11-29T00:34:02.895Z,4.53
2022-11-29T00:39:23.368Z,4.52
2022-11-29T00:44:44.339Z,4.50
2022-11-29T00:50:06.704Z,4.52
2022-11-29T00:55:27.115Z,4.51
2022-11-29T01:00:47.813Z,4.50
2022-11-29T01:06:12.074Z,4.51
2022-11-29T01:11:33.136Z,4.55
2022-11-29T01:16:53.574Z,4.49
2022-11-29T01:22:14.120Z,4.55
2022-11-29T01:27:35.047Z,4.53
2022-11-29T01:32:55.383Z,4.56
2022-11-29T01:38:16.217Z,4.56
2022-11-29T01:44:00.107Z,4.61
2022-11-29T01:49:26.277Z,4.61
2022-11-29T01:54:49.736Z,4.59
2022-11-29T02:00:14.610Z,4.62
2022-11-29T02:05:38.951Z,4.69
2022-11-29T02:11:16.537Z,4.70
2022-11-29T02:17:10.862Z,4.73
2022-11-29T02:22:49.504Z,4.73
2022-11-29T02:28:30.090Z,4.73
2022-11-29T02:34:35.354Z,4.76
2022-11-29T02:40:15.635Z,4.78
2022-11-29T02:46:08.688Z,4.71
2022-11-29T02:51:56.872Z,4.71
2022-11-29T02:57:29.411Z,4.70
2022-11-29T03:03:15.388Z,4.69
2022-11-29T03:08:54.651Z,4.76
2022-11-29T03:14:24.440Z,4.69
2022-11-29T03:20:06.412Z,4.71
2022-11-29T03:25:37.351Z,4.74
2022-11-29T03:31:16.126Z,4.74
2022-11-29T03:37:03.697Z,4.76
2022-11-29T03:42:32.734Z,4.76
2022-11-29T03:48:01.729Z,4.82
2022-11-29T03:53:34.634Z,4.82
2022-11-29T03:59:03.251Z,4.86
2022-11-29T04:04:57.597Z,4.82
2022-11-29T04:10:49.221Z,4.78
2022-11-29T04:16:29.004Z,4.80
2022-11-29T04:21:53.531Z,4.83
2022-11-29T04:27:40.314Z,4.86
2022-11-29T04:33:35.335Z,4.81
2022-11-29T04:39:04.874Z,4.81
2022-11-29T04:44:45.212Z,4.82
2022-11-29T04:50:20.191Z,4.85
2022-11-29T04:56:08.460Z,4.87
2022-11-29T05:01:50.832Z,4.86
2022-11-29T05:07:25.269Z,4.88
2022-11-29T05:13:00.697Z,4.91
2022-11-29T05:18:30.309Z,4.91
2022-11-29T05:23:58.750Z,4.90
2022-11-29T05:29:34.149Z,4.91
2022-11-29T05:35:25.826Z,4.93
2022-11-29T05:41:09.718Z,4.91
2022-11-29T05:46:54.285Z,4.94
2022-11-29T05:52:24.492Z,4.92
2022-11-29T05:57:57.007Z,4.94
2022-11-29T06:03:39.553Z,4.97
2022-11-29T06:09:14.054Z,5.03
2022-11-29T06:14:57.029Z,5.00
2022-11-29T06:20:23.515Z,5.00
2022-11-29T06:26:29.290Z,5.03
2022-11-29T06:32:16.434Z,5.04
2022-11-29T06:37:50.547Z,5.00
2022-11-29T06:43:11.614Z,4.99
2022-11-29T06:48:45.061Z,4.96
2022-11-29T06:54:27.326Z,4.94
2022-11-29T07:00:17.289Z,4.91
2022-11-29T07:05:38.418Z,4.93
2022-11-29T07:11:00.410Z,4.93
2022-11-29T07:16:27.087Z,4.93
2022-11-29T07:22:26.529Z,4.97
2022-11-29T07:28:01.516Z,4.99
2022-11-29T07:33:41.934Z,5.04
2022-11-29T07:39:33.063Z,5.13
2022-11-29T07:44:59.704Z,5.22
2022-11-29T07:50:20.999Z,5.28
2022-11-29T07:55:41.800Z,5.30
2022-11-29T08:01:03.510Z,5.35
2022-11-29T08:06:26.876Z,5.39
2022-11-29T08:11:48.789Z,5.49
2022-11-29T08:17:09.272Z,5.52
2022-11-29T08:22:30.364Z,5.52
2022-11-29T08:27:51.667Z,5.49
2022-11-29T08:33:12.308Z,5.51
2022-11-29T08:38:32.772Z,5.55
2022-11-29T08:43:53.523Z,5.58
2022-11-29T08:49:14.375Z,5.59
2022-11-29T08:54:34.752Z,5.64
2022-11-29T08:59:55.572Z,5.67
2022-11-29T09:05:16.135Z,5.71
2022-11-29T09:10:38.673Z,5.92
2022-11-29T09:15:59.339Z,6.03
2022-11-29T09:21:19.975Z,6.14
2022-11-29T09:26:42.120Z,6.20
2022-11-29T09:32:03.015Z,6.19
2022-11-29T09:37:23.714Z,6.20
2022-11-29T09:42:54.955Z,6.25
2022-11-29T09:48:34.135Z,6.21
2022-11-29T09:54:26.105Z,6.17
2022-11-29T09:59:51.293Z,6.22
2022-11-29T10:05:23.779Z,6.31
2022-11-29T10:10:47.589Z,6.51
2022-11-29T10:16:19.520Z,6.63
2022-11-29T10:21:43.675Z,6.67
2022-11-29T10:27:21.131Z,6.61
2022-11-29T10:32:45.279Z,6.51
2022-11-29T10:38:29.645Z,6.51
2022-11-29T10:43:48.056Z,6.58
2022-11-29T10:49:28.727Z,6.62
2022-11-29T10:54:53.778Z,6.75
2022-11-29T11:00:15.225Z,6.91
2022-11-29T11:05:36.047Z,7.02
2022-11-29T11:11:01.744Z,7.09
2022-11-29T11:16:25.715Z,7.16
2022-11-29T11:21:46.002Z,7.23
2022-11-29T11:27:06.466Z,7.46
2022-11-29T11:32:27.212Z,7.56
2022-11-29T11:37:57.546Z,7.56
2022-11-29T11:43:21.741Z,7.60
2022-11-29T11:48:42.698Z,7.53
2022-11-29T11:54:03.527Z,7.34
2022-11-29T11:59:26.729Z,7.25
2022-11-29T12:04:48.087Z,7.30
2022-11-29T12:10:19.028Z,7.33
2022-11-29T12:15:42.717Z,7.47
2022-11-29T12:21:13.181Z,7.55
2022-11-29T12:26:58.561Z,7.58
2022-11-29T12:32:42.994Z,7.53
2022-11-29T12:38:21.329Z,7.55
2022-11-29T12:43:51.134Z,7.59
2022-11-29T12:49:44.741Z,7.40
2022-11-29T12:55:50.304Z,7.33
2022-11-29T13:01:37.665Z,7.32
2022-11-29T13:07:29.648Z,7.19
2022-11-29T13:13:03.058Z,7.14
2022-11-29T13:18:44.224Z,7.15
2022-11-29T13:24:19.180Z,7.24
2022-11-29T13:29:40.421Z,7.37
2022-11-29T13:35:18.024Z,7.10
2022-11-29T13:40:45.205Z,7.05
2022-11-29T13:46:23.939Z,7.03
2022-11-29T13:51:45.876Z,7.03
2022-11-29T13:57:09.232Z,6.96
2022-11-29T14:02:31.712Z,6.93
2022-11-29T14:08:23.280Z,6.89
2022-11-29T14:13:49.340Z,6.85
2022-11-29T14:19:10.067Z,6.88
2022-11-29T14:24:35.311Z,6.84
2022-11-29T14:29:56.067Z,6.84
2022-11-29T14:35:43.605Z,6.81
2022-11-29T14:41:19.011Z,6.76
2022-11-29T14:46:39.598Z,6.77
2022-11-29T14:52:19.017Z,6.70
2022-11-29T14:57:58.523Z,6.66
2022-11-29T15:03:37.505Z,6.71
2022-11-29T15:09:05.776Z,6.70
2022-11-29T15:14:46.287Z,6.64
2022-11-29T15:20:22.420Z,6.63
2022-11-29T15:25:48.481Z,6.64
2022-11-29T15:31:13.112Z,6.59
2022-11-29T15:36:34.592Z,6.69
2022-11-29T15:42:10.498Z,6.80
2022-11-29T15:47:31.520Z,6.92
2022-11-29T15:52:59.840Z,6.96
2022-11-29T15:58:21.419Z,7.12
2022-11-29T16:03:45.471Z,7.21
2022-11-29T16:09:12.384Z,7.21
2022-11-29T16:14:33.104Z,7.14
2022-11-29T16:20:25.051Z,7.03
2022-11-29T16:26:21.455Z,6.94
2022-11-29T16:31:42.468Z,6.86
2022-11-29T16:37:06.564Z,6.81
2022-11-29T16:42:33.425Z,6.76
2022-11-29T16:47:58.789Z,6.76
2022-11-29T16:53:37.647Z,6.70
2022-11-29T16:59:26.234Z,6.68
2022-11-29T17:04:44.025Z,6.70
2022-11-29T17:10:07.744Z,6.69
2022-11-29T17:15:28.502Z,6.70
2022-11-29T17:20:49.043Z,6.67
2022-11-29T17:26:09.709Z,6.70
2022-11-29T17:31:31.448Z,6.66
2022-11-29T17:36:51.842Z,6.68
2022-11-29T17:42:12.379Z,6.63
2022-11-29T17:47:33.462Z,6.66
2022-11-29T17:52:53.735Z,6.70
2022-11-29T17:58:14.459Z,6.74
2022-11-29T18:03:40.108Z,6.76
2022-11-29T18:09:02.071Z,6.76
2022-11-29T18:14:23.790Z,6.76
2022-11-29T18:19:44.973Z,6.69
2022-11-29T18:25:36.960Z,6.65
2022-11-29T18:30:47.411Z,6.69
2022-11-29T18:36:11.121Z,6.80
2022-11-29T18:41:32.607Z,6.75
2022-11-29T18:46:53.330Z,6.75
2022-11-29T18:52:15.001Z,6.70
2022-11-29T18:57:35.685Z,6.72
2022-11-29T19:02:56.373Z,6.73
2022-11-29T19:08:17.103Z,6.68
2022-11-29T19:13:38.458Z,6.67
2022-11-29T19:19:00.377Z,6.65
2022-11-29T19:24:21.532Z,6.61
2022-11-29T19:29:42.255Z,6.53
2022-11-29T19:35:03.320Z,6.48
2022-11-29T19:40:23.950Z,6.42
2022-11-29T19:45:44.529Z,6.36
2022-11-29T19:51:07.221Z,6.30
2022-11-29T19:56:29.547Z,6.26
2022-11-29T20:01:50.670Z,6.24
2022-11-29T20:07:11.191Z,6.21
2022-11-29T20:12:32.855Z,6.21
2022-11-29T20:17:53.596Z,6.20
2022-11-29T20:23:14.470Z,6.11
2022-11-29T20:28:35.862Z,6.07
2022-11-29T20:33:57.502Z,6.04
2022-11-29T20:39:48.958Z,6.03
2022-11-29T20:45:12.111Z,6.05
2022-11-29T20:50:33.039Z,6.04
2022-11-29T20:55:53.698Z,6.03
2022-11-29T21:01:14.437Z,6.05
2022-11-29T21:06:39.140Z,6.03
2022-11-29T21:11:59.835Z,6.03
2022-11-29T21:17:20.526Z,6.05
2022-11-29T21:22:46.890Z,6.05
2022-11-29T21:28:13.321Z,6.03
2022-11-29T21:33:34.272Z,6.01
2022-11-29T21:38:55.387Z,6.02
2022-11-29T21:44:16.356Z,6.04
2022-11-29T21:49:36.756Z,6.03
2022-11-29T21:54:57.118Z,6.05
2022-11-29T22:00:19.452Z,6.04
2022-11-29T22:05:40.728Z,6.06
2022-11-29T22:11:09.891Z,6.04
2022-11-29T22:16:30.655Z,6.07
2022-11-29T22:21:53.669Z,6.07
2022-11-29T22:27:14.053Z,6.08
2022-11-29T22:32:34.725Z,6.08
2022-11-29T22:37:55.971Z,6.10
2022-11-29T22:43:16.495Z,6.14
2022-11-29T22:48:39.113Z,6.16
2022-11-29T22:54:01.751Z,6.15
2022-11-29T22:59:22.246Z,6.18
2022-11-29T23:04:42.805Z,6.15
2022-11-29T23:10:03.752Z,6.17
2022-11-29T23:15:24.110Z,6.16
2022-11-29T23:20:44.791Z,6.16
2022-11-29T23:26:08.331Z,6.20
2022-11-29T23:31:29.593Z,6.21
2022-11-29T23:36:53.161Z,6.21
2022-11-29T23:42:14.046Z,6.20
2022-11-29T23:47:34.811Z,6.15
2022-11-29T23:52:56.489Z,6.13
2022-11-29T23:58:16.806Z,6.11
